Time;durP1;ratioP1;P1;durP2;ratioP2;P2;SDS_P1;SDS_P2;PMS_P1;PMS_P2;Temp;Humidity;BMP_temperature;BMP_pressure;BME280_temperature;BME280_humidity;BME280_pressure;Samples;Min_cycle;Max_cycle;Signal;HPM_P1;HPM_P2
2023/01/24 00:01:40;;;;;;;16.50;12.03;;;4.20;99.90;;;;;;5048134;28;20493;-61
2023/01/24 00:04:08;;;;;;;20.03;13.70;;;4.10;99.90;;;;;;5044014;28;20476;-61
2023/01/24 00:06:36;;;;;;;19.03;13.30;;;4.10;99.90;;;;;;5033055;28;20490;-61
2023/01/24 00:09:06;;;;;;;18.57;13.13;;;4.20;99.90;;;;;;5032646;28;20988;-61
2023/01/24 00:11:34;;;;;;;20.27;13.83;;;4.30;99.90;;;;;;5032639;28;20477;-61
2023/01/24 00:14:02;;;;;;;22.10;14.53;;;4.50;99.90;;;;;;5032114;28;20475;-61
2023/01/24 00:16:30;;;;;;;17.77;12.97;;;4.40;99.90;;;;;;5032190;28;20993;-61
2023/01/24 00:18:58;;;;;;;16.63;13.37;;;4.30;99.90;;;;;;5032685;28;20465;-61
2023/01/24 00:21:26;;;;;;;19.87;14.93;;;4.30;99.90;;;;;;5032490;28;20467;-62
2023/01/24 00:23:55;;;;;;;19.63;15.83;;;4.30;99.90;;;;;;5032026;28;20485;-61
2023/01/24 00:26:26;;;;;;;22.67;15.20;;;4.30;99.90;;;;;;5032321;28;20557;-61
2023/01/24 00:28:54;;;;;;;20.83;15.57;;;4.40;99.90;;;;;;5044263;28;20480;-61
2023/01/24 00:31:24;;;;;;;22.10;14.20;;;4.20;99.90;;;;;;5045633;28;20485;-61
2023/01/24 00:33:54;;;;;;;20.67;14.07;;;4.10;99.90;;;;;;5049256;28;21047;-61
2023/01/24 00:36:23;;;;;;;22.60;15.93;;;4.20;99.90;;;;;;5040522;28;20525;-61
2023/01/24 00:38:51;;;;;;;23.60;16.33;;;4.20;99.90;;;;;;5031777;28;20482;-61
2023/01/24 00:41:19;;;;;;;16.50;13.80;;;4.10;99.90;;;;;;5032274;28;20455;-61
2023/01/24 00:43:48;;;;;;;24.17;16.83;;;4.10;99.90;;;;;;5047413;28;20463;-61
2023/01/24 00:46:18;;;;;;;22.07;14.70;;;4.20;99.90;;;;;;5030972;28;20834;-61
2023/01/24 00:48:49;;;;;;;20.40;14.70;;;4.30;99.90;;;;;;5031587;28;20482;-61
2023/01/24 00:51:17;;;;;;;21.30;15.97;;;4.40;99.90;;;;;;5036053;28;20984;-61
2023/01/24 00:53:45;;;;;;;24.07;16.77;;;4.30;99.90;;;;;;5035554;28;20482;-61
2023/01/24 00:56:13;;;;;;;20.50;15.47;;;4.10;99.90;;;;;;5035743;28;20485;-61
2023/01/24 00:58:41;;;;;;;21.30;16.00;;;4.00;99.90;;;;;;5047000;28;20465;-61
2023/01/24 01:01:11;;;;;;;20.97;15.27;;;4.20;99.90;;;;;;5037640;28;20573;-61
2023/01/24 01:03:39;;;;;;;19.50;13.70;;;4.00;99.90;;;;;;5047066;28;21504;-61
2023/01/24 01:06:11;;;;;;;23.20;16.50;;;4.20;99.90;;;;;;5045800;28;20486;-61
2023/01/24 01:08:39;;;;;;;21.17;15.53;;;4.00;99.90;;;;;;5035411;28;20466;-61
2023/01/24 01:11:07;;;;;;;24.47;16.53;;;4.00;99.90;;;;;;5034224;28;20473;-61
2023/01/24 01:13:35;;;;;;;20.93;15.63;;;3.90;99.90;;;;;;5035363;28;20465;-61
2023/01/24 01:16:07;;;;;;;22.37;15.90;;;4.10;99.90;;;;;;5035365;28;21080;-61
2023/01/24 01:18:37;;;;;;;20.03;14.53;;;4.00;99.90;;;;;;5035178;28;20487;-61
2023/01/24 01:21:06;;;;;;;22.10;16.10;;;4.00;99.90;;;;;;5034091;28;20467;-61
2023/01/24 01:23:34;;;;;;;23.20;15.13;;;4.10;99.90;;;;;;5033908;28;20463;-61
2023/01/24 01:26:05;;;;;;;23.10;17.33;;;4.20;99.90;;;;;;5035300;28;20502;-61
2023/01/24 01:28:33;;;;;;;21.80;15.73;;;4.20;99.90;;;;;;5045356;28;20472;-61
2023/01/24 01:31:03;;;;;;;21.17;15.77;;;4.10;99.90;;;;;;5045053;28;20502;-61
2023/01/24 01:33:31;;;;;;;17.27;13.60;;;4.00;99.90;;;;;;5042591;28;20965;-61
2023/01/24 01:36:01;;;;;;;18.10;14.17;;;4.20;99.90;;;;;;5043061;28;20493;-61
2023/01/24 01:38:29;;;;;;;28.30;18.27;;;4.20;99.90;;;;;;5034875;28;20972;-61
2023/01/24 01:40:58;;;;;;;22.10;15.90;;;4.10;99.90;;;;;;5050338;28;20497;-61
2023/01/24 01:43:29;;;;;;;22.57;17.30;;;4.10;99.90;;;;;;5033535;28;20970;-61
2023/01/24 01:46:02;;;;;;;24.57;17.03;;;4.00;99.90;;;;;;5034772;28;20472;-61
2023/01/24 01:48:37;;;;;;;18.07;14.57;;;4.00;99.90;;;;;;5034718;28;20512;-61
2023/01/24 01:51:12;;;;;;;17.23;14.17;;;3.90;99.90;;;;;;5033517;28;20573;-61
2023/01/24 01:53:47;;;;;;;16.57;14.13;;;3.90;99.90;;;;;;5034756;28;20467;-61
2023/01/24 01:56:22;;;;;;;15.33;12.00;;;3.80;99.90;;;;;;5034657;28;20486;-61
2023/01/24 01:58:50;;;;;;;16.53;13.83;;;4.00;99.90;;;;;;5038084;28;20815;-61
2023/01/24 02:01:18;;;;;;;18.33;15.07;;;4.00;99.90;;;;;;5039571;28;20485;-61
2023/01/24 02:03:54;;;;;;;21.87;16.23;;;4.10;99.90;;;;;;5042502;28;20819;-61
2023/01/24 02:06:34;;;;;;;20.53;15.73;;;4.00;99.90;;;;;;5042704;28;20476;-61
2023/01/24 02:09:05;;;;;;;20.70;15.07;;;4.10;99.90;;;;;;5034752;28;20481;-61
2023/01/24 02:11:39;;;;;;;21.63;16.60;;;4.20;99.90;;;;;;5034416;28;20958;-61
2023/01/24 02:16:55;;;;;;;18.83;14.47;;;4.10;99.90;;;;;;5033903;28;20486;-61
2023/01/24 02:20:07;;;;;;;20.93;15.87;;;4.10;99.90;;;;;;5033121;28;20523;-61
2023/01/24 02:22:45;;;;;;;21.00;15.37;;;4.10;99.90;;;;;;5028309;28;21002;-61
2023/01/24 02:25:20;;;;;;;19.60;14.27;;;3.90;99.90;;;;;;5034269;28;20869;-61
2023/01/24 02:27:50;;;;;;;16.10;11.97;;;4.00;99.90;;;;;;5037936;28;20502;-61
2023/01/24 02:30:18;;;;;;;21.03;14.07;;;4.00;99.90;;;;;;5048167;28;20469;-61
2023/01/24 02:32:47;;;;;;;19.87;14.10;;;3.90;99.90;;;;;;5054758;28;20512;-61
2023/01/24 02:35:24;;;;;;;18.63;13.60;;;3.80;99.90;;;;;;5045493;28;20557;-61
2023/01/24 02:37:52;;;;;;;15.93;12.47;;;3.90;99.90;;;;;;5036090;28;20580;-61
2023/01/24 02:40:21;;;;;;;17.73;12.73;;;4.10;99.90;;;;;;5032562;28;20569;-61
2023/01/24 02:42:52;;;;;;;23.53;16.73;;;4.30;99.90;;;;;;5029196;28;20471;-61
2023/01/24 02:45:24;;;;;;;17.07;13.50;;;4.20;99.90;;;;;;5029251;28;20452;-61
2023/01/24 02:47:55;;;;;;;20.00;13.67;;;4.10;99.90;;;;;;5021222;28;20474;-61
2023/01/24 02:50:25;;;;;;;19.77;15.33;;;4.10;99.90;;;;;;5032473;28;20476;-61
2023/01/24 02:58:23;;;;;;;20.23;15.83;;;4.20;99.90;;;;;;5040211;28;20501;-61
2023/01/24 03:00:51;;;;;;;19.37;14.67;;;4.10;99.90;;;;;;5042141;28;20482;-61
2023/01/24 03:03:20;;;;;;;21.17;16.20;;;4.20;99.90;;;;;;5037167;28;20529;-61
2023/01/24 03:05:56;;;;;;;21.37;16.07;;;4.10;99.90;;;;;;5032290;28;21011;-61
2023/01/24 03:08:32;;;;;;;21.43;14.83;;;4.10;99.90;;;;;;5027779;28;21017;-61
2023/01/24 03:11:02;;;;;;;19.10;14.40;;;3.90;99.90;;;;;;5031625;28;20479;-61
2023/01/24 03:35:53;;;;;;;20.63;16.30;;;4.10;99.90;;;;;;5044953;28;20526;-61
2023/01/24 03:41:10;;;;;;;18.97;14.63;;;4.10;99.90;;;;;;5031576;28;20478;-61
2023/01/24 03:43:40;;;;;;;20.43;14.00;;;4.20;99.90;;;;;;5031461;28;20470;-61
2023/01/24 03:46:11;;;;;;;21.43;15.80;;;4.20;99.90;;;;;;5031388;28;20577;-61
2023/01/24 03:48:46;;;;;;;19.20;15.00;;;4.20;99.90;;;;;;5047984;28;20536;-61
2023/01/24 03:54:00;;;;;;;23.60;17.00;;;3.90;99.90;;;;;;5031296;28;20497;-61
2023/01/24 03:56:39;;;;;;;21.37;15.67;;;3.90;99.90;;;;;;5031270;28;20999;-61
2023/01/24 03:59:07;;;;;;;21.67;16.40;;;4.10;99.90;;;;;;5042859;28;20466;-61
2023/01/24 04:01:39;;;;;;;20.17;15.17;;;3.90;99.90;;;;;;5033132;28;20489;-61
2023/01/24 04:05:11;;;;;;;21.17;14.83;;;4.10;99.90;;;;;;5044411;28;20501;-61
2023/01/24 04:07:13;;;;;;;22.07;17.13;;;4.20;99.90;;;;;;5031076;28;20466;-61
2023/01/24 04:09:54;;;;;;;22.23;16.40;;;4.00;99.90;;;;;;5031156;28;20496;-61
2023/01/24 04:12:22;;;;;;;21.70;16.17;;;4.10;99.90;;;;;;5030926;28;20565;-61
2023/01/24 04:14:50;;;;;;;21.57;16.63;;;4.20;99.90;;;;;;5030772;28;20550;-60
2023/01/24 04:17:19;;;;;;;24.90;18.17;;;4.10;99.90;;;;;;5030616;28;20475;-61
2023/01/24 04:19:51;;;;;;;20.03;16.60;;;4.20;99.90;;;;;;5030763;28;20228;-61
2023/01/24 04:22:20;;;;;;;19.27;13.40;;;4.00;99.90;;;;;;5030794;28;20477;-61
2023/01/24 04:24:48;;;;;;;18.57;14.13;;;3.90;99.90;;;;;;5034618;28;20463;-61
2023/01/24 04:27:17;;;;;;;18.97;13.43;;;4.00;99.90;;;;;;5034201;28;20475;-61
2023/01/24 04:29:57;;;;;;;19.70;14.90;;;4.20;99.90;;;;;;5041305;28;20463;-61
2023/01/24 04:32:26;;;;;;;21.40;19.02;;;4.30;99.90;;;;;;5034376;28;20778;-60
2023/01/24 04:35:06;;;;;;;23.30;17.00;;;4.30;99.90;;;;;;5036813;28;20231;-61
2023/01/24 04:37:58;;;;;;;22.30;16.33;;;4.20;99.90;;;;;;5032676;28;20487;-61
2023/01/24 04:40:36;;;;;;;22.03;15.87;;;4.10;99.90;;;;;;5032709;28;20471;-61
2023/01/24 04:43:04;;;;;;;20.23;15.30;;;4.00;99.90;;;;;;5035916;28;20969;-61
2023/01/24 04:45:33;;;;;;;18.03;14.33;;;3.90;99.90;;;;;;5034228;28;20462;-61
2023/01/24 04:48:04;;;;;;;20.70;13.80;;;4.10;99.90;;;;;;5034306;28;20475;-61
2023/01/24 04:50:32;;;;;;;21.67;16.80;;;4.10;99.90;;;;;;5034153;28;20470;-61
2023/01/24 04:53:00;;;;;;;23.17;15.60;;;4.00;99.90;;;;;;5034111;28;20482;-61
2023/01/24 04:55:29;;;;;;;22.17;16.20;;;3.90;99.90;;;;;;5033837;28;20475;-61
2023/01/24 04:57:58;;;;;;;22.73;17.13;;;3.90;99.90;;;;;;5034599;28;20323;-61
2023/01/24 05:00:26;;;;;;;21.77;17.20;;;3.90;99.90;;;;;;5033299;28;20860;-61
2023/01/24 05:02:54;;;;;;;22.50;16.20;;;3.80;99.90;;;;;;5040811;28;20968;-61
2023/01/24 05:05:25;;;;;;;21.10;15.53;;;4.10;99.90;;;;;;5045862;28;20498;-61
2023/01/24 05:07:53;;;;;;;23.53;16.87;;;4.20;99.90;;;;;;5037689;28;20454;-61
2023/01/24 05:10:23;;;;;;;23.07;16.87;;;4.30;99.90;;;;;;5034362;28;20509;-61
2023/01/24 05:12:52;;;;;;;24.53;18.40;;;4.30;99.90;;;;;;5034331;28;20553;-61
2023/01/24 05:15:22;;;;;;;25.90;18.57;;;4.50;99.90;;;;;;5034253;28;20467;-61
2023/01/24 05:17:52;;;;;;;23.83;17.03;;;4.40;99.90;;;;;;5033932;28;20513;-61
2023/01/24 05:20:25;;;;;;;29.43;19.37;;;4.30;99.90;;;;;;5033947;28;20497;-61
2023/01/24 05:22:56;;;;;;;25.80;18.93;;;4.30;99.90;;;;;;5033382;28;20479;-61
2023/01/24 05:25:26;;;;;;;25.97;18.57;;;4.20;99.90;;;;;;5032875;28;21071;-61
2023/01/24 05:27:55;;;;;;;25.77;19.10;;;4.10;99.90;;;;;;5038772;28;20469;-61
2023/01/24 05:30:23;;;;;;;26.63;18.60;;;4.00;99.90;;;;;;5040503;28;20477;-61
2023/01/24 05:32:57;;;;;;;26.53;17.93;;;3.90;99.90;;;;;;5038385;28;20563;-61
2023/01/24 05:35:26;;;;;;;23.83;17.77;;;4.00;99.90;;;;;;5044743;28;20458;-61
2023/01/24 05:37:55;;;;;;;26.87;18.67;;;4.10;99.90;;;;;;5047851;28;20486;-61
2023/01/24 05:40:24;;;;;;;27.20;17.83;;;3.90;99.90;;;;;;5033730;28;20508;-61
2023/01/24 05:42:52;;;;;;;26.60;18.13;;;4.00;99.90;;;;;;5033340;28;20466;-61
2023/01/24 05:45:21;;;;;;;28.33;18.77;;;4.10;99.90;;;;;;5033605;28;20471;-61
2023/01/24 05:47:50;;;;;;;27.60;20.27;;;4.10;99.90;;;;;;5033274;28;20486;-61
2023/01/24 05:50:19;;;;;;;26.10;20.17;;;4.00;99.90;;;;;;5033417;28;20517;-61
2023/01/24 05:53:09;;;;;;;24.93;18.40;;;4.00;99.90;;;;;;5034486;28;20470;-61
2023/01/24 05:55:37;;;;;;;23.07;16.20;;;4.10;99.90;;;;;;5032996;28;20572;-61
2023/01/24 05:58:05;;;;;;;23.90;18.53;;;4.10;99.90;;;;;;5040989;28;20842;-61
2023/01/24 06:00:38;;;;;;;26.17;19.40;;;4.00;99.90;;;;;;5038342;28;20474;-61
2023/01/24 06:03:21;;;;;;;26.40;18.60;;;3.90;99.90;;;;;;5035611;28;20493;-61
2023/01/24 06:05:54;;;;;;;30.03;21.47;;;4.00;99.90;;;;;;5032672;28;20494;-61
2023/01/24 06:08:25;;;;;;;29.43;20.40;;;3.90;99.90;;;;;;5032820;28;20452;-61
2023/01/24 06:10:54;;;;;;;29.80;20.50;;;3.80;99.90;;;;;;5032894;28;20468;-61
2023/01/24 06:13:23;;;;;;;29.23;21.50;;;3.80;99.90;;;;;;5032594;28;20495;-61
2023/01/24 06:15:52;;;;;;;28.03;20.33;;;3.80;99.90;;;;;;5032887;28;20473;-61
2023/01/24 06:18:24;;;;;;;26.53;18.70;;;3.90;99.90;;;;;;5032988;28;20564;-61
2023/01/24 06:20:52;;;;;;;27.97;21.10;;;4.10;99.90;;;;;;5033996;28;20832;-61
2023/01/24 06:23:28;;;;;;;29.33;20.77;;;4.10;99.90;;;;;;5032541;28;20462;-61
2023/01/24 06:26:00;;;;;;;29.27;20.23;;;3.90;99.90;;;;;;5032396;28;20462;-61
2023/01/24 06:28:29;;;;;;;29.53;20.37;;;3.80;99.90;;;;;;5035076;28;20580;-61
2023/01/24 06:31:05;;;;;;;28.17;20.23;;;3.80;99.90;;;;;;5035055;28;20475;-61
2023/01/24 06:33:40;;;;;;;28.03;20.00;;;3.80;99.90;;;;;;5039076;28;20484;-61
2023/01/24 06:36:20;;;;;;;26.83;19.27;;;3.70;99.90;;;;;;5044837;28;20477;-61
2023/01/24 06:38:50;;;;;;;21.50;17.00;;;3.80;99.90;;;;;;5053872;28;20494;-61
2023/01/24 06:41:18;;;;;;;21.50;16.20;;;3.70;99.90;;;;;;5053861;28;20969;-61
2023/01/24 06:43:47;;;;;;;18.03;13.90;;;3.60;99.90;;;;;;5053903;28;20860;-61
2023/01/24 06:46:15;;;;;;;19.70;14.93;;;3.70;99.90;;;;;;5052799;28;20548;-61
2023/01/24 06:48:44;;;;;;;19.60;15.07;;;3.60;99.90;;;;;;5047236;28;20474;-61
2023/01/24 06:51:14;;;;;;;18.90;14.37;;;3.60;99.90;;;;;;5033693;28;20477;-61
2023/01/24 06:53:42;;;;;;;19.47;15.10;;;3.60;99.90;;;;;;5033052;28;20466;-61
2023/01/24 06:56:11;;;;;;;20.17;14.00;;;3.60;99.90;;;;;;5014140;28;20475;-61
2023/01/24 06:58:39;;;;;;;18.73;14.17;;;3.60;99.90;;;;;;5032526;28;20566;-61
2023/01/24 07:01:07;;;;;;;20.10;15.17;;;3.80;99.90;;;;;;5035427;28;20474;-61
2023/01/24 07:03:36;;;;;;;20.00;16.07;;;3.90;99.90;;;;;;5040278;28;20474;-61
2023/01/24 07:06:04;;;;;;;19.27;15.00;;;3.90;99.90;;;;;;5045284;28;20814;-61
2023/01/24 07:08:32;;;;;;;21.77;16.23;;;3.80;99.90;;;;;;5053434;28;20471;-61
2023/01/24 07:11:00;;;;;;;22.53;16.40;;;3.80;99.90;;;;;;5053570;28;20465;-61
2023/01/24 07:13:30;;;;;;;21.30;16.37;;;3.90;99.90;;;;;;5038832;28;20966;-63
2023/01/24 07:16:01;;;;;;;25.93;20.40;;;3.80;99.90;;;;;;5033617;28;20976;-61
2023/01/24 07:18:30;;;;;;;23.77;18.60;;;3.70;99.90;;;;;;5032975;28;20517;-61
2023/01/24 07:20:58;;;;;;;24.20;18.80;;;3.60;99.90;;;;;;5033367;28;20470;-61
2023/01/24 07:23:29;;;;;;;25.80;19.10;;;3.70;99.90;;;;;;5032842;28;20486;-61
2023/01/24 07:25:58;;;;;;;24.87;19.03;;;3.80;99.90;;;;;;5032404;28;20470;-61
2023/01/24 07:28:27;;;;;;;24.40;19.70;;;3.80;99.90;;;;;;5038939;28;20469;-61
2023/01/24 07:30:56;;;;;;;23.73;18.57;;;3.70;99.90;;;;;;5044166;28;20467;-61
2023/01/24 07:33:24;;;;;;;23.17;19.23;;;3.70;99.90;;;;;;5047925;28;20494;-61
2023/01/24 07:35:52;;;;;;;25.50;19.03;;;3.60;99.90;;;;;;5047074;28;20465;-61
2023/01/24 07:38:20;;;;;;;26.77;19.87;;;3.80;99.90;;;;;;5052711;28;20468;-61
2023/01/24 07:40:48;;;;;;;24.87;19.43;;;3.70;99.90;;;;;;5013270;28;20866;-61
2023/01/24 07:43:18;;;;;;;26.40;20.37;;;3.70;99.90;;;;;;5013097;28;20471;-61
2023/01/24 07:45:46;;;;;;;29.23;21.40;;;3.70;99.90;;;;;;5013175;28;21009;-61
2023/01/24 07:48:16;;;;;;;27.43;20.87;;;3.60;99.90;;;;;;5013344;28;20470;-61
2023/01/24 07:50:44;;;;;;;27.10;20.97;;;3.60;99.90;;;;;;5024548;28;20472;-61
2023/01/24 07:53:12;;;;;;;29.77;20.77;;;3.60;99.90;;;;;;5032442;28;20471;-61
2023/01/24 07:55:40;;;;;;;25.03;19.37;;;3.60;99.90;;;;;;5032221;28;20479;-61
2023/01/24 07:58:17;;;;;;;24.60;18.50;;;3.50;99.90;;;;;;5040276;28;20487;-61
2023/01/24 08:00:45;;;;;;;24.03;18.07;;;3.60;99.90;;;;;;5043782;28;21098;-61
2023/01/24 08:03:13;;;;;;;24.77;16.93;;;3.70;99.90;;;;;;5047594;28;20454;-60
2023/01/24 08:05:42;;;;;;;21.87;18.13;;;3.80;99.90;;;;;;5043893;28;20469;-61
2023/01/24 08:08:10;;;;;;;24.70;19.40;;;3.80;99.90;;;;;;5047103;28;20470;-61
2023/01/24 08:10:38;;;;;;;25.57;19.47;;;3.80;99.90;;;;;;5032326;28;20528;-61
2023/01/24 08:13:06;;;;;;;26.10;18.97;;;3.70;99.90;;;;;;5032784;28;20485;-61
2023/01/24 08:15:34;;;;;;;25.57;18.87;;;3.70;99.90;;;;;;5032355;28;20466;-61
2023/01/24 08:18:03;;;;;;;26.27;19.30;;;3.60;99.90;;;;;;5031708;28;20826;-61
2023/01/24 08:20:31;;;;;;;20.60;16.73;;;3.60;99.90;;;;;;5031785;28;20562;-61
2023/01/24 08:23:00;;;;;;;24.37;18.43;;;3.80;99.90;;;;;;5032621;28;20466;-61
2023/01/24 08:25:31;;;;;;;24.57;18.13;;;3.90;99.90;;;;;;5032570;28;20821;-61
2023/01/24 08:27:59;;;;;;;24.23;18.07;;;4.00;99.90;;;;;;5033187;28;20475;-61
2023/01/24 08:30:27;;;;;;;25.53;19.50;;;3.90;99.90;;;;;;5043399;28;21018;-61
2023/01/24 08:33:06;;;;;;;23.27;17.43;;;3.90;99.90;;;;;;5047185;28;20969;-61
2023/01/24 08:35:34;;;;;;;24.97;18.60;;;3.80;99.90;;;;;;5043705;28;20503;-61
2023/01/24 08:38:07;;;;;;;23.60;18.33;;;3.70;99.90;;;;;;5052397;28;21041;-61
2023/01/24 08:40:35;;;;;;;25.07;19.33;;;3.70;99.90;;;;;;5052037;28;20570;-61
2023/01/24 08:43:16;;;;;;;24.83;18.67;;;3.60;99.90;;;;;;5052027;28;20565;-62
2023/01/24 08:45:44;;;;;;;21.27;16.20;;;3.70;99.90;;;;;;5052016;28;20446;-61
2023/01/24 08:48:12;;;;;;;19.17;15.37;;;3.70;99.90;;;;;;5040357;28;20469;-61
2023/01/24 08:50:40;;;;;;;18.77;12.43;;;3.70;99.90;;;;;;5031713;28;20983;-61
2023/01/24 08:53:12;;;;;;;16.87;13.00;;;3.70;99.90;;;;;;5032427;28;20499;-61
2023/01/24 08:55:40;;;;;;;20.67;15.43;;;3.80;99.90;;;;;;5031807;28;20487;-61
2023/01/24 08:58:08;;;;;;;23.63;17.20;;;3.80;99.90;;;;;;5039212;28;20466;-61
2023/01/24 09:00:36;;;;;;;20.70;17.17;;;3.70;99.90;;;;;;5043030;28;20473;-61
2023/01/24 09:03:04;;;;;;;21.07;16.30;;;3.90;99.90;;;;;;5047113;28;20462;-61
2023/01/24 09:05:33;;;;;;;21.93;17.20;;;3.80;99.90;;;;;;5041920;28;20469;-61
2023/01/24 09:08:01;;;;;;;21.37;16.47;;;3.70;99.90;;;;;;5012624;28;20832;-61
2023/01/24 09:10:30;;;;;;;23.03;17.40;;;3.70;99.90;;;;;;5013834;28;20474;-61
2023/01/24 09:12:58;;;;;;;24.23;17.27;;;3.70;99.90;;;;;;5025378;28;20481;-61
2023/01/24 09:15:27;;;;;;;19.83;15.23;;;3.60;99.90;;;;;;5035263;28;20830;-61
2023/01/24 09:17:55;;;;;;;18.53;15.30;;;3.70;99.90;;;;;;5035780;28;20475;-61
2023/01/24 09:20:23;;;;;;;19.67;14.23;;;3.70;99.90;;;;;;5035443;28;20478;-61
2023/01/24 09:22:51;;;;;;;18.13;14.77;;;3.80;99.90;;;;;;5035705;28;20812;-61
2023/01/24 09:25:19;;;;;;;17.63;13.97;;;3.70;99.90;;;;;;5035459;28;20472;-61
2023/01/24 09:27:55;;;;;;;19.87;15.27;;;3.80;99.90;;;;;;5039444;28;20463;-61
2023/01/24 09:30:23;;;;;;;18.47;15.40;;;3.80;99.90;;;;;;5040789;28;20472;-61
2023/01/24 09:32:52;;;;;;;19.97;15.83;;;3.80;99.90;;;;;;5036087;28;20519;-60
2023/01/24 09:35:20;;;;;;;19.17;14.87;;;3.70;99.90;;;;;;5046780;28;20469;-61
2023/01/24 09:37:51;;;;;;;20.37;14.70;;;3.60;99.90;;;;;;5054916;28;20461;-61
2023/01/24 09:40:24;;;;;;;16.03;13.37;;;3.70;99.90;;;;;;5055221;28;20490;-61
2023/01/24 09:43:02;;;;;;;14.40;12.50;;;3.80;99.90;;;;;;5036801;28;20467;-61
2023/01/24 09:45:35;;;;;;;16.47;14.10;;;3.90;99.90;;;;;;5031854;28;20463;-61
2023/01/24 09:48:06;;;;;;;16.60;13.47;;;3.90;99.90;;;;;;5034957;28;20458;-61
2023/01/24 09:50:41;;;;;;;18.60;14.33;;;3.90;99.90;;;;;;5035047;28;20474;-61
2023/01/24 09:53:18;;;;;;;18.10;14.63;;;3.80;99.90;;;;;;5035168;28;20984;-61
2023/01/24 09:55:47;;;;;;;18.50;13.00;;;3.80;99.90;;;;;;5034390;28;20493;-60
2023/01/24 09:58:30;;;;;;;18.13;14.73;;;3.70;99.90;;;;;;5032465;28;20475;-61
2023/01/24 10:01:00;;;;;;;16.63;13.83;;;3.70;99.90;;;;;;5042702;28;20561;-61
2023/01/24 10:03:29;;;;;;;20.30;14.90;;;3.70;99.90;;;;;;5031960;28;20459;-61
2023/01/24 10:06:01;;;;;;;16.67;12.97;;;3.70;99.90;;;;;;5046133;28;20502;-61
2023/01/24 10:08:38;;;;;;;16.07;13.30;;;3.70;99.90;;;;;;5054572;28;20814;-61
2023/01/24 10:11:20;;;;;;;17.17;12.30;;;3.80;99.90;;;;;;5044924;28;20473;-61
2023/01/24 10:14:24;;;;;;;15.47;11.60;;;3.60;99.90;;;;;;5034234;28;20470;-61
2023/01/24 10:17:22;;;;;;;14.43;12.00;;;3.60;99.90;;;;;;5034235;28;20468;-61
2023/01/24 10:20:08;;;;;;;14.93;12.03;;;3.60;99.90;;;;;;5034164;28;20576;-61
2023/01/24 10:22:49;;;;;;;15.03;12.23;;;3.70;99.90;;;;;;5033970;28;20480;-61
2023/01/24 10:25:22;;;;;;;17.70;12.83;;;3.70;99.90;;;;;;5024981;28;20485;-61
2023/01/24 10:27:54;;;;;;;16.83;13.27;;;3.70;99.90;;;;;;5035105;28;20791;-61
2023/01/24 10:30:28;;;;;;;16.73;13.73;;;3.70;99.90;;;;;;5045249;28;20458;-61
2023/01/24 10:33:03;;;;;;;16.23;13.97;;;3.60;99.90;;;;;;5049106;28;20472;-61
2023/01/24 10:35:39;;;;;;;18.30;12.53;;;3.70;99.90;;;;;;5045597;28;20479;-61
2023/01/24 10:38:12;;;;;;;17.73;13.73;;;3.70;99.90;;;;;;5054179;28;20455;-60
2023/01/24 10:40:50;;;;;;;13.00;11.27;;;3.60;99.90;;;;;;5053569;28;20534;-60
2023/01/24 10:43:21;;;;;;;20.53;15.17;;;3.60;99.90;;;;;;5054076;28;20824;-61
2023/01/24 10:45:58;;;;;;;16.23;14.47;;;3.60;99.90;;;;;;5053622;28;20471;-61
2023/01/24 10:48:39;;;;;;;19.13;14.23;;;3.60;99.90;;;;;;5053843;28;20456;-61
2023/01/24 10:51:16;;;;;;;17.53;14.07;;;3.70;99.90;;;;;;5036554;28;20474;-61
2023/01/24 10:53:45;;;;;;;16.07;12.17;;;3.60;99.90;;;;;;5033541;28;20476;-61
2023/01/24 10:56:16;;;;;;;16.07;12.57;;;3.70;99.90;;;;;;5033963;28;20815;-61
2023/01/24 10:58:55;;;;;;;18.77;13.70;;;3.70;99.90;;;;;;5041490;28;20466;-61
2023/01/24 11:01:31;;;;;;;19.03;14.10;;;3.70;99.90;;;;;;5046751;28;20981;-61
2023/01/24 11:04:14;;;;;;;16.27;12.97;;;3.80;99.90;;;;;;5042622;28;20960;-60
2023/01/24 11:06:47;;;;;;;15.03;11.93;;;3.80;99.90;;;;;;5049821;28;20479;-63
2023/01/24 11:09:19;;;;;;;14.30;12.07;;;3.70;99.90;;;;;;5053384;28;20463;-61
2023/01/24 11:11:51;;;;;;;15.53;12.33;;;3.70;99.90;;;;;;5053433;28;20471;-60
2023/01/24 11:14:21;;;;;;;14.70;11.63;;;3.60;99.90;;;;;;5052065;28;20983;-61
2023/01/24 11:16:52;;;;;;;16.57;12.60;;;3.70;99.90;;;;;;5033152;28;20453;-61
2023/01/24 11:19:28;;;;;;;15.50;12.17;;;3.70;99.90;;;;;;5033573;28;21033;-61
2023/01/24 11:21:59;;;;;;;14.40;11.83;;;3.70;99.90;;;;;;5035874;28;20480;-61
2023/01/24 11:24:28;;;;;;;15.57;12.27;;;3.80;99.90;;;;;;5033337;28;20493;-61
2023/01/24 11:27:02;;;;;;;14.70;11.50;;;3.80;99.90;;;;;;5033354;28;20466;-61
2023/01/24 11:29:31;;;;;;;14.60;12.23;;;3.80;99.90;;;;;;5047225;28;20466;-61
2023/01/24 11:32:18;;;;;;;15.20;12.33;;;3.70;99.90;;;;;;5033592;28;20480;-61
2023/01/24 11:34:55;;;;;;;13.67;11.27;;;3.70;99.90;;;;;;5038110;28;20466;-60
2023/01/24 11:37:40;;;;;;;14.13;12.00;;;3.80;99.90;;;;;;5053147;28;20830;-61
2023/01/24 11:40:29;;;;;;;15.67;12.93;;;4.00;99.90;;;;;;5045452;28;20469;-61
2023/01/24 11:43:14;;;;;;;14.77;11.80;;;3.90;99.90;;;;;;5033161;28;20796;-61
2023/01/24 11:46:12;;;;;;;13.20;11.33;;;3.90;99.90;;;;;;5032638;28;20459;-60
2023/01/24 11:48:51;;;;;;;16.30;11.93;;;3.80;99.90;;;;;;5032627;28;20893;-61
2023/01/24 11:51:30;;;;;;;15.77;11.03;;;3.80;99.90;;;;;;5033071;28;20540;-61
2023/01/24 11:54:13;;;;;;;15.20;11.03;;;3.70;99.90;;;;;;5032746;28;21006;-61
2023/01/24 11:56:47;;;;;;;13.13;10.77;;;3.70;99.90;;;;;;5031576;28;20489;-61
2023/01/24 11:59:43;;;;;;;13.90;10.50;;;3.80;99.90;;;;;;5036754;28;20469;-61
2023/01/24 12:02:33;;;;;;;24.50;15.60;;;3.90;99.90;;;;;;5013003;28;20497;-61
2023/01/24 12:05:12;;;;;;;16.40;12.57;;;3.90;99.90;;;;;;5040615;28;20702;-61
2023/01/24 12:07:56;;;;;;;16.03;13.23;;;4.00;99.90;;;;;;5032329;28;20467;-61
2023/01/24 12:10:28;;;;;;;14.00;11.20;;;3.90;99.90;;;;;;5032807;28;20478;-59
2023/01/24 12:13:04;;;;;;;13.97;10.57;;;3.90;99.90;;;;;;5032793;28;20823;-61
2023/01/24 12:15:54;;;;;;;14.53;11.10;;;3.90;99.90;;;;;;5031871;28;20819;-61
2023/01/24 12:18:42;;;;;;;13.20;10.40;;;3.90;99.90;;;;;;5031033;28;20489;-61
2023/01/24 12:21:11;;;;;;;13.90;11.33;;;3.90;99.90;;;;;;5032159;28;20535;-61
2023/01/24 12:23:49;;;;;;;15.23;11.27;;;3.90;99.90;;;;;;5032025;28;20470;-61
2023/01/24 12:26:22;;;;;;;14.53;11.83;;;3.90;99.90;;;;;;5032833;28;20464;-61
2023/01/24 12:29:01;;;;;;;13.23;11.27;;;3.80;99.90;;;;;;5036678;28;20533;-61
2023/01/24 12:31:40;;;;;;;15.50;12.17;;;3.80;99.90;;;;;;5029882;28;20474;-61
2023/01/24 12:34:20;;;;;;;17.83;13.47;;;3.80;99.90;;;;;;5040741;28;20970;-61
2023/01/24 12:36:56;;;;;;;17.77;14.03;;;3.80;99.90;;;;;;5033298;28;20486;-61
2023/01/24 12:39:33;;;;;;;14.30;12.10;;;3.80;99.90;;;;;;5032313;28;20461;-61
2023/01/24 12:42:09;;;;;;;13.83;11.83;;;3.80;99.90;;;;;;5030304;28;20492;-61
2023/01/24 12:44:42;;;;;;;14.67;12.00;;;3.70;99.90;;;;;;5032606;28;20469;-61
2023/01/24 12:47:26;;;;;;;14.00;11.20;;;3.70;99.90;;;;;;5036413;28;20566;-61
2023/01/24 12:50:04;;;;;;;14.00;10.63;;;3.70;99.90;;;;;;5036188;28;20470;-61
2023/01/24 12:52:41;;;;;;;14.50;10.97;;;3.70;99.90;;;;;;5033954;28;20868;-61
2023/01/24 12:55:15;;;;;;;16.60;11.60;;;3.70;99.90;;;;;;5035899;28;20478;-61
2023/01/24 12:57:48;;;;;;;12.03;10.27;;;3.70;99.90;;;;;;5034598;28;20474;-61
2023/01/24 13:00:18;;;;;;;13.40;11.37;;;3.70;99.90;;;;;;5039977;28;20471;-61
2023/01/24 13:03:21;;;;;;;13.43;11.33;;;3.80;99.90;;;;;;5050668;28;20585;-61
2023/01/24 13:05:59;;;;;;;16.53;11.60;;;3.80;99.90;;;;;;5047184;28;20480;-61
2023/01/24 13:08:39;;;;;;;13.17;10.50;;;3.80;99.90;;;;;;5035642;28;20964;-60
2023/01/24 13:11:19;;;;;;;14.03;10.70;;;3.80;99.90;;;;;;5015916;28;20563;-61
2023/01/24 13:13:57;;;;;;;12.83;11.10;;;3.70;99.90;;;;;;5027044;28;20537;-61
2023/01/24 13:16:43;;;;;;;12.63;10.47;;;3.70;99.90;;;;;;5032114;28;20470;-61
2023/01/24 13:19:23;;;;;;;15.83;12.53;;;3.70;99.90;;;;;;5016055;28;20469;-61
2023/01/24 13:21:59;;;;;;;14.67;12.07;;;3.70;99.90;;;;;;5032369;28;20488;-61
2023/01/24 13:24:48;;;;;;;13.60;11.40;;;4.10;99.90;;;;;;5035661;28;20465;-60
2023/01/24 13:27:30;;;;;;;12.07;10.03;;;3.90;99.90;;;;;;5034792;28;20552;-61
2023/01/24 13:30:09;;;;;;;14.60;11.43;;;3.90;99.90;;;;;;5044598;28;20489;-61
2023/01/24 13:32:39;;;;;;;14.70;11.87;;;3.90;99.90;;;;;;5034960;28;20467;-61
2023/01/24 13:35:17;;;;;;;14.37;11.97;;;3.80;99.90;;;;;;5046861;28;20462;-61
2023/01/24 13:37:51;;;;;;;14.30;11.67;;;3.70;99.90;;;;;;5034977;28;20816;-61
2023/01/24 13:40:23;;;;;;;16.30;11.47;;;3.60;99.90;;;;;;5035108;28;20990;-61